Terminal Aerodrome Forecast
Issued by NWS Jacksonville, FL

Home | Current Version | Previous Version | Text Only | Print | Product List | Glossary On
Versions: 1 2 3 4 5 6 7 8 9 10 11 12 13 14 15 16 17 18 19 20 21 22 23 24
000
FTUS42 KJAX 222041 AAD
TAFJAX
TAF AMD
KJAX 222041Z 2221/2318 VRB03KT 3SM -TSRA BR BKN040 OVC070CB
     FM222115 24008KT P6SM VCTS SCT015CB BKN035 OVC045
     FM222145 25006KT P6SM VCTS SCT025CB BKN045 OVC070
     FM222210 25003KT P6SM VCSH FEW070 SCT120 BKN250
     FM230000 23005KT P6SM BKN250
     FM231400 24006KT P6SM SCT025 SCT150 SCT250=

USA.gov is the U.S. government's official web portal to all federal, state and local government web resources and services.